sensor_id;sensor_type;location;lat;lon;timestamp;pressure;altitude;pressure_sealevel;temperature;humidity
47738;BME280;33502;47.182;27.506;2022-11-20T00:01:29;100424.19;;;-0.24;100.00
47738;BME280;33502;47.182;27.506;2022-11-20T00:03:55;100426.75;;;-0.27;100.00
47738;BME280;33502;47.182;27.506;2022-11-20T00:06:22;100437.19;;;-0.30;100.00
47738;BME280;33502;47.182;27.506;2022-11-20T00:08:48;100439.78;;;-0.32;100.00
47738;BME280;33502;47.182;27.506;2022-11-20T00:11:16;100437.19;;;-0.32;100.00
47738;BME280;33502;47.182;27.506;2022-11-20T00:13:44;100440.63;;;-0.33;100.00
47738;BME280;33502;47.182;27.506;2022-11-20T00:16:11;100454.50;;;-0.34;100.00
47738;BME280;33502;47.182;27.506;2022-11-20T00:18:37;100451.03;;;-0.36;100.00
47738;BME280;33502;47.182;27.506;2022-11-20T00:21:05;100462.28;;;-0.37;100.00
47738;BME280;33502;47.182;27.506;2022-11-20T00:23:31;100459.69;;;-0.40;100.00
47738;BME280;33502;47.182;27.506;2022-11-20T00:26:02;100460.56;;;-0.41;100.00
47738;BME280;33502;47.182;27.506;2022-11-20T00:28:28;100459.69;;;-0.43;100.00
47738;BME280;33502;47.182;27.506;2022-11-20T00:31:00;100456.19;;;-0.47;100.00
47738;BME280;33502;47.182;27.506;2022-11-20T00:33:27;100455.31;;;-0.50;100.00
47738;BME280;33502;47.182;27.506;2022-11-20T00:35:53;100452.69;;;-0.50;100.00
47738;BME280;33502;47.182;27.506;2022-11-20T00:38:18;100458.78;;;-0.51;100.00
47738;BME280;33502;47.182;27.506;2022-11-20T00:40:44;100458.78;;;-0.51;100.00
47738;BME280;33502;47.182;27.506;2022-11-20T00:43:10;100455.31;;;-0.53;100.00
47738;BME280;33502;47.182;27.506;2022-11-20T00:45:36;100447.50;;;-0.53;100.00
47738;BME280;33502;47.182;27.506;2022-11-20T00:48:01;100441.41;;;-0.54;100.00
47738;BME280;33502;47.182;27.506;2022-11-20T00:50:27;100446.59;;;-0.55;100.00
47738;BME280;33502;47.182;27.506;2022-11-20T00:52:53;100445.75;;;-0.53;100.00
47738;BME280;33502;47.182;27.506;2022-11-20T00:55:18;100442.31;;;-0.53;100.00
47738;BME280;33502;47.182;27.506;2022-11-20T00:57:44;100441.41;;;-0.52;100.00
47738;BME280;33502;47.182;27.506;2022-11-20T01:00:10;100432.78;;;-0.51;100.00
47738;BME280;33502;47.182;27.506;2022-11-20T01:02:36;100424.94;;;-0.53;100.00
47738;BME280;33502;47.182;27.506;2022-11-20T01:05:01;100422.34;;;-0.54;100.00
47738;BME280;33502;47.182;27.506;2022-11-20T01:07:27;100423.19;;;-0.55;100.00
47738;BME280;33502;47.182;27.506;2022-11-20T01:09:53;100422.34;;;-0.54;100.00
47738;BME280;33502;47.182;27.506;2022-11-20T01:12:19;100411.06;;;-0.58;100.00
47738;BME280;33502;47.182;27.506;2022-11-20T01:14:44;100412.78;;;-0.55;100.00
47738;BME280;33502;47.182;27.506;2022-11-20T01:17:10;100401.53;;;-0.54;100.00
47738;BME280;33502;47.182;27.506;2022-11-20T01:19:36;100385.94;;;-0.54;100.00
47738;BME280;33502;47.182;27.506;2022-11-20T01:22:01;100383.31;;;-0.56;100.00
47738;BME280;33502;47.182;27.506;2022-11-20T01:24:27;100379.88;;;-0.55;100.00
47738;BME280;33502;47.182;27.506;2022-11-20T01:26:53;100379.88;;;-0.55;100.00
47738;BME280;33502;47.182;27.506;2022-11-20T01:29:22;100373.78;;;-0.54;100.00
47738;BME280;33502;47.182;27.506;2022-11-20T01:31:49;100370.31;;;-0.56;100.00
47738;BME280;33502;47.182;27.506;2022-11-20T01:34:17;100361.66;;;-0.56;100.00
47738;BME280;33502;47.182;27.506;2022-11-20T01:36:44;100348.63;;;-0.56;100.00
47738;BME280;33502;47.182;27.506;2022-11-20T01:39:19;100346.91;;;-0.56;100.00
47738;BME280;33502;47.182;27.506;2022-11-20T01:41:46;100346.03;;;-0.56;100.00
47738;BME280;33502;47.182;27.506;2022-11-20T01:44:55;100329.56;;;-0.57;100.00
47738;BME280;33502;47.182;27.506;2022-11-20T01:50:01;100321.78;;;-0.57;100.00
47738;BME280;33502;47.182;27.506;2022-11-20T01:52:36;100321.78;;;-0.57;100.00
47738;BME280;33502;47.182;27.506;2022-11-20T01:55:04;100324.38;;;-0.58;100.00
47738;BME280;33502;47.182;27.506;2022-11-20T01:57:34;100315.69;;;-0.57;100.00
47738;BME280;33502;47.182;27.506;2022-11-20T02:00:07;100318.28;;;-0.57;100.00
47738;BME280;33502;47.182;27.506;2022-11-20T02:02:43;100319.16;;;-0.58;100.00
47738;BME280;33502;47.182;27.506;2022-11-20T02:06:24;100318.28;;;-0.57;100.00
47738;BME280;33502;47.182;27.506;2022-11-20T02:08:19;100313.94;;;-0.60;100.00
47738;BME280;33502;47.182;27.506;2022-11-20T02:10:45;100310.50;;;-0.61;100.00
47738;BME280;33502;47.182;27.506;2022-11-20T02:13:11;100314.81;;;-0.60;100.00
47738;BME280;33502;47.182;27.506;2022-11-20T02:15:55;100313.97;;;-0.58;100.00
47738;BME280;33502;47.182;27.506;2022-11-20T02:18:21;100325.22;;;-0.58;100.00
47738;BME280;33502;47.182;27.506;2022-11-20T02:20:53;100315.69;;;-0.57;100.00
47738;BME280;33502;47.182;27.506;2022-11-20T02:23:50;100314.81;;;-0.58;100.00
47738;BME280;33502;47.182;27.506;2022-11-20T02:26:17;100316.56;;;-0.58;100.00
47738;BME280;33502;47.182;27.506;2022-11-20T02:28:45;100314.81;;;-0.60;100.00
47738;BME280;33502;47.182;27.506;2022-11-20T02:31:11;100311.34;;;-0.58;100.00
47738;BME280;33502;47.182;27.506;2022-11-20T02:33:36;100316.56;;;-0.58;100.00
47738;BME280;33502;47.182;27.506;2022-11-20T02:36:02;100321.75;;;-0.58;100.00
47738;BME280;33502;47.182;27.506;2022-11-20T02:38:28;100313.06;;;-0.57;100.00
47738;BME280;33502;47.182;27.506;2022-11-20T02:40:54;100312.22;;;-0.58;100.00
47738;BME280;33502;47.182;27.506;2022-11-20T02:43:19;100317.44;;;-0.56;100.00
47738;BME280;33502;47.182;27.506;2022-11-20T02:45:45;100317.44;;;-0.55;100.00
47738;BME280;33502;47.182;27.506;2022-11-20T02:48:11;100314.84;;;-0.55;100.00
47738;BME280;33502;47.182;27.506;2022-11-20T02:50:38;100311.34;;;-0.55;100.00
47738;BME280;33502;47.182;27.506;2022-11-20T02:53:04;100308.75;;;-0.54;100.00
47738;BME280;33502;47.182;27.506;2022-11-20T02:55:30;100287.94;;;-0.55;100.00
47738;BME280;33502;47.182;27.506;2022-11-20T02:57:56;100299.25;;;-0.53;100.00
47738;BME280;33502;47.182;27.506;2022-11-20T03:00:21;100290.53;;;-0.54;100.00
47738;BME280;33502;47.182;27.506;2022-11-20T03:02:47;100287.97;;;-0.51;100.00
47738;BME280;33502;47.182;27.506;2022-11-20T03:05:13;100287.97;;;-0.51;100.00
47738;BME280;33502;47.182;27.506;2022-11-20T03:07:38;100282.75;;;-0.51;100.00
47738;BME280;33502;47.182;27.506;2022-11-20T03:10:05;100268.91;;;-0.51;100.00
47738;BME280;33502;47.182;27.506;2022-11-20T03:12:31;100258.50;;;-0.51;100.00
47738;BME280;33502;47.182;27.506;2022-11-20T03:14:56;100261.09;;;-0.53;100.00
47738;BME280;33502;47.182;27.506;2022-11-20T03:17:22;100263.69;;;-0.51;100.00
47738;BME280;33502;47.182;27.506;2022-11-20T03:19:48;100255.88;;;-0.50;100.00
47738;BME280;33502;47.182;27.506;2022-11-20T03:22:14;100259.34;;;-0.49;100.00
47738;BME280;33502;47.182;27.506;2022-11-20T03:24:39;100252.41;;;-0.50;100.00
47738;BME280;33502;47.182;27.506;2022-11-20T03:27:05;100242.00;;;-0.49;100.00
47738;BME280;33502;47.182;27.506;2022-11-20T03:29:31;100234.19;;;-0.50;100.00
47738;BME280;33502;47.182;27.506;2022-11-20T03:31:57;100237.66;;;-0.48;100.00
47738;BME280;33502;47.182;27.506;2022-11-20T03:34:23;100229.88;;;-0.47;100.00
47738;BME280;33502;47.182;27.506;2022-11-20T03:36:49;100220.31;;;-0.46;100.00
47738;BME280;33502;47.182;27.506;2022-11-20T03:39:14;100211.66;;;-0.47;100.00
47738;BME280;33502;47.182;27.506;2022-11-20T03:41:41;100207.31;;;-0.46;100.00
47738;BME280;33502;47.182;27.506;2022-11-20T03:44:09;100213.41;;;-0.47;100.00
47738;BME280;33502;47.182;27.506;2022-11-20T03:46:35;100209.91;;;-0.46;100.00
47738;BME280;33502;47.182;27.506;2022-11-20T03:49:02;100207.31;;;-0.46;100.00
47738;BME280;33502;47.182;27.506;2022-11-20T03:51:30;100196.91;;;-0.46;100.00
47738;BME280;33502;47.182;27.506;2022-11-20T03:53:58;100188.25;;;-0.45;100.00
47738;BME280;33502;47.182;27.506;2022-11-20T03:56:30;100192.59;;;-0.46;100.00
47738;BME280;33502;47.182;27.506;2022-11-20T03:58:56;100178.72;;;-0.45;100.00
47738;BME280;33502;47.182;27.506;2022-11-20T04:01:24;100170.06;;;-0.44;100.00
47738;BME280;33502;47.182;27.506;2022-11-20T04:03:55;100177.84;;;-0.42;100.00
47738;BME280;33502;47.182;27.506;2022-11-20T04:06:26;100176.13;;;-0.40;100.00
47738;BME280;33502;47.182;27.506;2022-11-20T04:08:57;100174.38;;;-0.43;100.00
47738;BME280;33502;47.182;27.506;2022-11-20T04:11:28;100161.38;;;-0.43;100.00
47738;BME280;33502;47.182;27.506;2022-11-20T04:13:59;100153.56;;;-0.41;100.00
47738;BME280;33502;47.182;27.506;2022-11-20T04:16:26;100152.72;;;-0.40;100.00
47738;BME280;33502;47.182;27.506;2022-11-20T04:18:53;100142.31;;;-0.42;100.00
47738;BME280;33502;47.182;27.506;2022-11-20T04:21:19;100151.81;;;-0.39;100.00
47738;BME280;33502;47.182;27.506;2022-11-20T04:23:45;100151.81;;;-0.39;100.00
47738;BME280;33502;47.182;27.506;2022-11-20T04:26:11;100155.28;;;-0.37;100.00
47738;BME280;33502;47.182;27.506;2022-11-20T04:28:38;100151.84;;;-0.36;100.00
47738;BME280;33502;47.182;27.506;2022-11-20T04:31:06;100144.03;;;-0.34;100.00
47738;BME280;33502;47.182;27.506;2022-11-20T04:33:33;100135.34;;;-0.35;100.00
47738;BME280;33502;47.182;27.506;2022-11-20T04:36:04;100131.88;;;-0.34;100.00
47738;BME280;33502;47.182;27.506;2022-11-20T04:38:30;100137.94;;;-0.33;100.00
47738;BME280;33502;47.182;27.506;2022-11-20T04:41:02;100131.00;;;-0.30;100.00
47738;BME280;33502;47.182;27.506;2022-11-20T04:43:28;100121.44;;;-0.29;100.00
47738;BME280;33502;47.182;27.506;2022-11-20T04:45:55;100137.06;;;-0.28;100.00
47738;BME280;33502;47.182;27.506;2022-11-20T04:48:22;100136.22;;;-0.27;100.00
47738;BME280;33502;47.182;27.506;2022-11-20T04:50:48;100136.19;;;-0.21;100.00
47738;BME280;33502;47.182;27.506;2022-11-20T04:53:14;100131.00;;;-0.22;100.00
47738;BME280;33502;47.182;27.506;2022-11-20T04:55:40;100121.44;;;-0.20;100.00
47738;BME280;33502;47.182;27.506;2022-11-20T04:58:06;100115.38;;;-0.24;100.00
47738;BME280;33502;47.182;27.506;2022-11-20T05:00:31;100117.97;;;-0.24;100.00
47738;BME280;33502;47.182;27.506;2022-11-20T05:02:57;100115.38;;;-0.24;100.00
47738;BME280;33502;47.182;27.506;2022-11-20T05:05:23;100111.06;;;-0.25;100.00
47738;BME280;33502;47.182;27.506;2022-11-20T05:07:48;100119.72;;;-0.24;100.00
47738;BME280;33502;47.182;27.506;2022-11-20T05:10:14;100113.66;;;-0.25;100.00
47738;BME280;33502;47.182;27.506;2022-11-20T05:12:40;100106.72;;;-0.23;100.00
47738;BME280;33502;47.182;27.506;2022-11-20T05:15:07;100108.47;;;-0.25;100.00
47738;BME280;33502;47.182;27.506;2022-11-20T05:17:33;100105.81;;;-0.23;100.00
47738;BME280;33502;47.182;27.506;2022-11-20T05:19:58;100089.38;;;-0.27;100.00
47738;BME280;33502;47.182;27.506;2022-11-20T05:22:24;100081.53;;;-0.25;100.00
47738;BME280;33502;47.182;27.506;2022-11-20T05:24:50;100082.44;;;-0.29;100.00
47738;BME280;33502;47.182;27.506;2022-11-20T05:27:16;100076.38;;;-0.30;100.00
47738;BME280;33502;47.182;27.506;2022-11-20T05:29:41;100062.47;;;-0.29;100.00
47738;BME280;33502;47.182;27.506;2022-11-20T05:32:07;100059.00;;;-0.28;100.00
47738;BME280;33502;47.182;27.506;2022-11-20T05:34:35;100069.41;;;-0.25;100.00
47738;BME280;33502;47.182;27.506;2022-11-20T05:37:02;100091.09;;;-0.24;100.00
47738;BME280;33502;47.182;27.506;2022-11-20T05:39:28;100100.63;;;-0.22;100.00
47738;BME280;33502;47.182;27.506;2022-11-20T05:41:54;100096.28;;;-0.20;100.00
47738;BME280;33502;47.182;27.506;2022-11-20T05:44:39;100090.19;;;-0.15;100.00
47738;BME280;33502;47.182;27.506;2022-11-20T05:47:05;100091.06;;;-0.12;100.00
47738;BME280;33502;47.182;27.506;2022-11-20T05:49:31;100079.78;;;-0.12;100.00
47738;BME280;33502;47.182;27.506;2022-11-20T05:51:57;100071.97;;;-0.15;100.00
47738;BME280;33502;47.182;27.506;2022-11-20T05:54:22;100047.69;;;-0.17;100.00
47738;BME280;33502;47.182;27.506;2022-11-20T05:56:48;100032.97;;;-0.18;100.00
47738;BME280;33502;47.182;27.506;2022-11-20T05:59:14;100027.75;;;-0.20;100.00
47738;BME280;33502;47.182;27.506;2022-11-20T06:01:39;100013.00;;;-0.20;100.00
47738;BME280;33502;47.182;27.506;2022-11-20T06:04:05;100006.94;;;-0.20;100.00
47738;BME280;33502;47.182;27.506;2022-11-20T06:06:31;100023.41;;;-0.18;100.00
47738;BME280;33502;47.182;27.506;2022-11-20T06:08:56;100043.38;;;-0.17;100.00
47738;BME280;33502;47.182;27.506;2022-11-20T06:11:24;100058.97;;;-0.14;100.00
47738;BME280;33502;47.182;27.506;2022-11-20T06:13:50;100065.91;;;-0.11;100.00
47738;BME280;33502;47.182;27.506;2022-11-20T06:16:18;100078.91;;;-0.08;100.00
47738;BME280;33502;47.182;27.506;2022-11-20T06:18:45;100087.56;;;-0.08;100.00
47738;BME280;33502;47.182;27.506;2022-11-20T06:21:13;100094.50;;;-0.02;100.00
47738;BME280;33502;47.182;27.506;2022-11-20T06:23:40;100090.16;;;0.00;100.00
47738;BME280;33502;47.182;27.506;2022-11-20T06:26:11;100082.38;;;0.00;100.00
47738;BME280;33502;47.182;27.506;2022-11-20T06:28:38;100070.19;;;-0.01;100.00
47738;BME280;33502;47.182;27.506;2022-11-20T06:31:04;100071.94;;;0.00;100.00
47738;BME280;33502;47.182;27.506;2022-11-20T06:33:31;100057.19;;;-0.03;100.00
47738;BME280;33502;47.182;27.506;2022-11-20T06:35:58;100060.66;;;0.01;100.00
47738;BME280;33502;47.182;27.506;2022-11-20T06:38:25;100062.38;;;0.05;100.00
47738;BME280;33502;47.182;27.506;2022-11-20T06:40:51;100058.00;;;0.10;100.00
47738;BME280;33502;47.182;27.506;2022-11-20T06:43:16;100042.38;;;0.12;100.00
47738;BME280;33502;47.182;27.506;2022-11-20T06:45:42;100028.47;;;0.17;100.00
47738;BME280;33502;47.182;27.506;2022-11-20T06:48:08;100024.97;;;0.18;100.00
47738;BME280;33502;47.182;27.506;2022-11-20T06:50:37;100028.44;;;0.21;100.00
47738;BME280;33502;47.182;27.506;2022-11-20T06:53:03;100025.84;;;0.21;100.00
47738;BME280;33502;47.182;27.506;2022-11-20T06:55:30;100035.34;;;0.25;100.00
47738;BME280;33502;47.182;27.506;2022-11-20T06:57:56;100014.53;;;0.25;100.00
47738;BME280;33502;47.182;27.506;2022-11-20T07:00:22;100013.66;;;0.26;100.00
47738;BME280;33502;47.182;27.506;2022-11-20T07:02:47;100018.03;;;0.25;100.00
47738;BME280;33502;47.182;27.506;2022-11-20T07:05:13;100011.91;;;0.26;100.00
47738;BME280;33502;47.182;27.506;2022-11-20T07:07:39;100016.22;;;0.30;100.00
47738;BME280;33502;47.182;27.506;2022-11-20T07:10:05;100023.16;;;0.34;100.00
47738;BME280;33502;47.182;27.506;2022-11-20T07:12:31;100024.00;;;0.38;100.00
47738;BME280;33502;47.182;27.506;2022-11-20T07:14:57;100028.34;;;0.41;100.00
47738;BME280;33502;47.182;27.506;2022-11-20T07:17:22;100022.25;;;0.42;100.00
47738;BME280;33502;47.182;27.506;2022-11-20T07:19:48;100029.19;;;0.43;100.00
47738;BME280;33502;47.182;27.506;2022-11-20T07:22:14;100025.69;;;0.44;100.00
47738;BME280;33502;47.182;27.506;2022-11-20T07:24:39;100005.75;;;0.39;100.00
47738;BME280;33502;47.182;27.506;2022-11-20T07:27:05;100021.38;;;0.39;100.00
47738;BME280;33502;47.182;27.506;2022-11-20T07:29:31;100058.75;;;0.37;100.00
47738;BME280;33502;47.182;27.506;2022-11-20T07:31:56;100072.66;;;0.33;100.00
47738;BME280;33502;47.182;27.506;2022-11-20T07:34:22;100064.84;;;0.31;100.00
47738;BME280;33502;47.182;27.506;2022-11-20T07:36:48;100040.56;;;0.31;100.00
47738;BME280;33502;47.182;27.506;2022-11-20T07:39:14;100010.22;;;0.25;100.00
47738;BME280;33502;47.182;27.506;2022-11-20T07:41:40;100007.56;;;0.28;100.00
47738;BME280;33502;47.182;27.506;2022-11-20T07:44:05;99996.25;;;0.34;100.00
47738;BME280;33502;47.182;27.506;2022-11-20T07:46:31;100006.66;;;0.35;100.00
47738;BME280;33502;47.182;27.506;2022-11-20T07:48:57;99978.00;;;0.37;100.00
47738;BME280;33502;47.182;27.506;2022-11-20T07:51:22;99969.28;;;0.41;100.00
47738;BME280;33502;47.182;27.506;2022-11-20T07:53:52;99998.78;;;0.46;100.00
47738;BME280;33502;47.182;27.506;2022-11-20T07:56:18;99996.13;;;0.51;100.00
47738;BME280;33502;47.182;27.506;2022-11-20T07:58:44;99993.53;;;0.52;100.00
47738;BME280;33502;47.182;27.506;2022-11-20T08:01:09;99992.69;;;0.52;100.00
47738;BME280;33502;47.182;27.506;2022-11-20T08:03:35;100010.88;;;0.53;100.00
47738;BME280;33502;47.182;27.506;2022-11-20T08:06:03;100030.00;;;0.52;100.00
47738;BME280;33502;47.182;27.506;2022-11-20T08:08:29;100018.69;;;0.55;100.00
47738;BME280;33502;47.182;27.506;2022-11-20T08:10:58;100000.44;;;0.55;100.00
47738;BME280;33502;47.182;27.506;2022-11-20T08:13:43;99989.19;;;0.53;100.00
47738;BME280;33502;47.182;27.506;2022-11-20T08:16:27;99977.91;;;0.54;100.00
47738;BME280;33502;47.182;27.506;2022-11-20T08:18:53;99964.03;;;0.52;100.00
47738;BME280;33502;47.182;27.506;2022-11-20T08:21:19;99963.16;;;0.48;100.00
47738;BME280;33502;47.182;27.506;2022-11-20T08:23:45;99960.56;;;0.48;100.00
47738;BME280;33502;47.182;27.506;2022-11-20T08:26:10;99960.53;;;0.51;100.00
47738;BME280;33502;47.182;27.506;2022-11-20T08:28:36;99953.56;;;0.53;100.00
47738;BME280;33502;47.182;27.506;2022-11-20T08:31:02;99958.75;;;0.60;100.00
47738;BME280;33502;47.182;27.506;2022-11-20T08:33:29;99940.47;;;0.63;100.00
47738;BME280;33502;47.182;27.506;2022-11-20T08:36:13;99932.66;;;0.63;100.00
47738;BME280;33502;47.182;27.506;2022-11-20T08:38:39;99949.94;;;0.73;100.00
47738;BME280;33502;47.182;27.506;2022-11-20T08:41:05;99969.00;;;0.80;100.00
47738;BME280;33502;47.182;27.506;2022-11-20T08:43:55;99974.13;;;0.89;100.00
47738;BME280;33502;47.182;27.506;2022-11-20T08:46:22;99971.50;;;0.90;100.00
47738;BME280;33502;47.182;27.506;2022-11-20T08:48:48;99977.59;;;0.88;100.00
47738;BME280;33502;47.182;27.506;2022-11-20T08:51:14;99971.53;;;0.89;100.00
47738;BME280;33502;47.182;27.506;2022-11-20T08:53:40;99972.38;;;0.89;100.00
47738;BME280;33502;47.182;27.506;2022-11-20T08:56:06;99974.19;;;0.83;100.00
47738;BME280;33502;47.182;27.506;2022-11-20T08:58:32;99973.28;;;0.85;100.00
47738;BME280;33502;47.182;27.506;2022-11-20T09:00:58;99958.47;;;0.90;100.00
47738;BME280;33502;47.182;27.506;2022-11-20T09:03:24;99956.66;;;0.95;100.00
47738;BME280;33502;47.182;27.506;2022-11-20T09:05:57;99965.31;;;1.01;100.00
47738;BME280;33502;47.182;27.506;2022-11-20T09:08:24;99949.69;;;1.01;100.00
47738;BME280;33502;47.182;27.506;2022-11-20T09:10:53;99943.59;;;1.00;100.00
47738;BME280;33502;47.182;27.506;2022-11-20T09:13:20;99947.91;;;1.03;100.00
47738;BME280;33502;47.182;27.506;2022-11-20T09:15:46;99950.50;;;1.06;100.00
47738;BME280;33502;47.182;27.506;2022-11-20T09:18:12;99947.00;;;1.10;100.00
47738;BME280;33502;47.182;27.506;2022-11-20T09:20:38;99947.75;;;1.20;100.00
47738;BME280;33502;47.182;27.506;2022-11-20T09:23:04;99943.34;;;1.26;100.00
47738;BME280;33502;47.182;27.506;2022-11-20T09:25:29;99928.56;;;1.25;100.00
47738;BME280;33502;47.182;27.506;2022-11-20T09:27:58;99924.28;;;1.18;100.00
47738;BME280;33502;47.182;27.506;2022-11-20T09:30:25;99922.53;;;1.20;100.00
47738;BME280;33502;47.182;27.506;2022-11-20T09:32:51;99906.88;;;1.22;100.00
47738;BME280;33502;47.182;27.506;2022-11-20T09:35:17;99899.84;;;1.28;100.00
47738;BME280;33502;47.182;27.506;2022-11-20T09:37:44;99898.03;;;1.33;100.00
47738;BME280;33502;47.182;27.506;2022-11-20T09:40:20;99893.59;;;1.42;100.00
47738;BME280;33502;47.182;27.506;2022-11-20T09:54:08;99918.59;;;1.58;100.00
47738;BME280;33502;47.182;27.506;2022-11-20T09:56:39;99922.22;;;1.49;100.00
47738;BME280;33502;47.182;27.506;2022-11-20T09:59:07;99918.72;;;1.50;100.00
47738;BME280;33502;47.182;27.506;2022-11-20T10:01:39;99910.00;;;1.51;100.00
47738;BME280;33502;47.182;27.506;2022-11-20T10:04:19;99912.59;;;1.53;100.00
47738;BME280;33502;47.182;27.506;2022-11-20T10:09:42;99911.69;;;1.55;100.00
47738;BME280;33502;47.182;27.506;2022-11-20T10:12:15;99890.69;;;1.66;100.00
47738;BME280;33502;47.182;27.506;2022-11-20T10:15:10;99877.47;;;1.75;100.00
47738;BME280;33502;47.182;27.506;2022-11-20T10:23:05;99899.16;;;1.82;100.00
47738;BME280;33502;47.182;27.506;2022-11-20T10:31:35;99868.56;;;1.27;100.00
47738;BME280;33502;47.182;27.506;2022-11-20T10:34:06;99875.72;;;1.11;100.00
47738;BME280;33502;47.182;27.506;2022-11-20T10:37:14;99864.53;;;1.00;100.00
47738;BME280;33502;47.182;27.506;2022-11-20T10:39:50;99831.44;;;1.05;100.00
47738;BME280;33502;47.182;27.506;2022-11-20T10:42:32;99838.41;;;1.04;100.00
47738;BME280;33502;47.182;27.506;2022-11-20T10:47:38;99811.47;;;1.05;100.00
47738;BME280;33502;47.182;27.506;2022-11-20T10:50:08;99824.34;;;1.16;100.00
47738;BME280;33502;47.182;27.506;2022-11-20T10:55:45;99858.16;;;1.22;100.00
47738;BME280;33502;47.182;27.506;2022-11-20T11:00:41;99863.63;;;1.04;100.00
47738;BME280;33502;47.182;27.506;2022-11-20T11:03:23;99862.81;;;0.95;100.00
47738;BME280;33502;47.182;27.506;2022-11-20T11:08:56;99862.72;;;1.05;100.00
47738;BME280;33502;47.182;27.506;2022-11-20T11:11:30;99858.41;;;1.04;100.00
47738;BME280;33502;47.182;27.506;2022-11-20T11:14:14;99853.19;;;1.04;100.00
47738;BME280;33502;47.182;27.506;2022-11-20T11:16:54;99851.34;;;1.13;100.00
47738;BME280;33502;47.182;27.506;2022-11-20T11:19:21;99836.56;;;1.12;100.00
47738;BME280;33502;47.182;27.506;2022-11-20T11:21:55;99826.13;;;1.14;100.00
47738;BME280;33502;47.182;27.506;2022-11-20T11:24:27;99844.38;;;1.12;100.00
47738;BME280;33502;47.182;27.506;2022-11-20T11:29:24;99852.34;;;1.02;100.00
47738;BME280;33502;47.182;27.506;2022-11-20T11:32:08;99873.28;;;0.94;100.00
47738;BME280;33502;47.182;27.506;2022-11-20T11:34:36;99852.47;;;0.88;100.00
47738;BME280;33502;47.182;27.506;2022-11-20T11:37:03;99857.69;;;0.89;100.00
47738;BME280;33502;47.182;27.506;2022-11-20T11:39:31;99867.31;;;0.84;100.00
47738;BME280;33502;47.182;27.506;2022-11-20T11:41:58;99859.53;;;0.80;100.00
47738;BME280;33502;47.182;27.506;2022-11-20T11:44:31;99864.72;;;0.81;100.00
47738;BME280;33502;47.182;27.506;2022-11-20T11:52:51;99818.56;;;0.89;100.00
47738;BME280;33502;47.182;27.506;2022-11-20T11:55:43;99836.81;;;0.92;100.00
47738;BME280;33502;47.182;27.506;2022-11-20T11:58:34;99819.41;;;0.94;100.00
47738;BME280;33502;47.182;27.506;2022-11-20T12:01:29;99848.94;;;0.93;100.00
47738;BME280;33502;47.182;27.506;2022-11-20T12:04:11;99875.06;;;0.90;100.00
47738;BME280;33502;47.182;27.506;2022-11-20T12:06:43;99859.41;;;0.90;100.00
47738;BME280;33502;47.182;27.506;2022-11-20T12:09:10;99843.72;;;0.95;100.00
47738;BME280;33502;47.182;27.506;2022-11-20T12:11:51;99856.66;;;1.03;100.00
47738;BME280;33502;47.182;27.506;2022-11-20T12:14:34;99839.25;;;1.03;100.00
47738;BME280;33502;47.182;27.506;2022-11-20T12:17:01;99866.22;;;1.04;100.00
47738;BME280;33502;47.182;27.506;2022-11-20T12:19:33;99893.31;;;0.92;100.00
47738;BME280;33502;47.182;27.506;2022-11-20T12:22:01;99874.25;;;0.84;100.00
47738;BME280;33502;47.182;27.506;2022-11-20T12:30:26;99841.38;;;0.70;100.00
47738;BME280;33502;47.182;27.506;2022-11-20T12:41:55;99807.59;;;0.61;100.00
47738;BME280;33502;47.182;27.506;2022-11-20T12:48:09;99823.19;;;0.64;100.00
47738;BME280;33502;47.182;27.506;2022-11-20T12:50:51;99829.25;;;0.65;100.00
47738;BME280;33502;47.182;27.506;2022-11-20T12:53:36;99820.59;;;0.63;100.00
47738;BME280;33502;47.182;27.506;2022-11-20T12:59:05;99818.91;;;0.60;100.00
47738;BME280;33502;47.182;27.506;2022-11-20T13:07:30;99813.66;;;0.63;100.00
47738;BME280;33502;47.182;27.506;2022-11-20T13:09:56;99824.03;;;0.68;100.00
47738;BME280;33502;47.182;27.506;2022-11-20T13:17:52;99818.81;;;0.71;100.00
47738;BME280;33502;47.182;27.506;2022-11-20T13:20:20;99795.31;;;0.72;100.00
47738;BME280;33502;47.182;27.506;2022-11-20T13:22:48;99810.09;;;0.72;100.00
47738;BME280;33502;47.182;27.506;2022-11-20T13:25:35;99794.44;;;0.75;100.00
47738;BME280;33502;47.182;27.506;2022-11-20T13:30:48;99802.19;;;0.78;100.00
47738;BME280;33502;47.182;27.506;2022-11-20T13:33:35;99802.16;;;0.81;100.00
47738;BME280;33502;47.182;27.506;2022-11-20T13:36:21;99813.50;;;0.78;100.00
47738;BME280;33502;47.182;27.506;2022-11-20T13:38:50;99810.06;;;0.75;100.00
47738;BME280;33502;47.182;27.506;2022-11-20T13:41:25;99806.63;;;0.70;100.00
47738;BME280;33502;47.182;27.506;2022-11-20T13:44:09;99807.56;;;0.66;100.00
47738;BME280;33502;47.182;27.506;2022-11-20T13:46:38;99812.75;;;0.66;100.00
47738;BME280;33502;47.182;27.506;2022-11-20T13:49:37;99769.38;;;0.63;100.00
47738;BME280;33502;47.182;27.506;2022-11-20T13:54:51;99792.84;;;0.62;100.00
47738;BME280;33502;47.182;27.506;2022-11-20T13:59:56;99800.72;;;0.55;100.00
47738;BME280;33502;47.182;27.506;2022-11-20T14:02:24;99794.69;;;0.52;100.00
47738;BME280;33502;47.182;27.506;2022-11-20T14:04:53;99795.56;;;0.48;100.00
47738;BME280;33502;47.182;27.506;2022-11-20T14:07:23;99807.78;;;0.44;100.00
47738;BME280;33502;47.182;27.506;2022-11-20T14:09:54;99801.69;;;0.44;100.00
47738;BME280;33502;47.182;27.506;2022-11-20T14:12:28;99813.84;;;0.43;100.00
47738;BME280;33502;47.182;27.506;2022-11-20T14:14:54;99801.75;;;0.36;100.00
47738;BME280;33502;47.182;27.506;2022-11-20T14:19:47;99797.44;;;0.36;100.00